createdAt,value
2022-09-28T00:01:00.987Z,11.90
2022-09-28T00:03:29.363Z,11.90
2022-09-28T00:06:03.983Z,11.90
2022-09-28T00:08:32.086Z,11.90
2022-09-28T00:11:00.038Z,11.90
2022-09-28T00:13:28.227Z,11.90
2022-09-28T00:16:03.796Z,12.30
2022-09-28T00:18:32.259Z,11.90
2022-09-28T00:21:06.616Z,11.80
2022-09-28T00:23:55.614Z,11.80
2022-09-28T00:26:23.802Z,14.60
2022-09-28T00:28:52.849Z,11.80
2022-09-28T00:31:20.751Z,11.80
2022-09-28T00:33:51.832Z,11.70
2022-09-28T00:36:21.185Z,11.70
2022-09-28T00:38:48.966Z,11.70
2022-09-28T00:41:19.478Z,11.70
2022-09-28T00:43:47.553Z,11.70
2022-09-28T00:46:19.342Z,11.60
2022-09-28T00:48:53.189Z,13.00
2022-09-28T00:51:26.926Z,11.60
2022-09-28T00:53:56.055Z,11.60
2022-09-28T00:56:28.131Z,11.50
2022-09-28T00:58:56.250Z,11.60
2022-09-28T01:01:24.179Z,11.50
2022-09-28T01:03:52.072Z,11.50
2022-09-28T01:06:22.817Z,11.50
2022-09-28T01:08:56.059Z,11.50
2022-09-28T01:11:24.415Z,11.50
2022-09-28T01:13:57.534Z,11.50
2022-09-28T01:16:33.724Z,11.50
2022-09-28T01:19:26.790Z,11.50
2022-09-28T01:22:04.221Z,14.10
2022-09-28T01:24:43.012Z,11.50
2022-09-28T01:27:18.985Z,11.50
2022-09-28T01:29:50.726Z,11.50
2022-09-28T01:32:35.816Z,11.50
2022-09-28T01:35:08.984Z,11.50
2022-09-28T01:37:42.601Z,11.50
2022-09-28T01:40:12.929Z,13.00
2022-09-28T01:42:44.895Z,11.50
2022-09-28T01:45:19.203Z,11.50
2022-09-28T01:47:49.100Z,13.60
2022-09-28T01:50:20.510Z,11.50
2022-09-28T01:52:51.746Z,11.50
2022-09-28T01:55:28.968Z,11.50
2022-09-28T01:58:04.294Z,11.50
2022-09-28T02:00:33.482Z,11.50
2022-09-28T02:03:06.820Z,11.40
2022-09-28T02:05:37.985Z,11.50
2022-09-28T02:08:10.360Z,11.50
2022-09-28T02:10:43.454Z,11.40
2022-09-28T02:13:17.361Z,11.40
2022-09-28T02:15:51.439Z,11.40
2022-09-28T02:18:19.966Z,11.60
2022-09-28T02:20:53.224Z,11.40
2022-09-28T02:23:24.391Z,11.40
2022-09-28T02:25:56.599Z,11.40
2022-09-28T02:28:25.812Z,11.30
2022-09-28T02:30:53.734Z,11.30
2022-09-28T02:33:28.016Z,11.30
2022-09-28T02:35:56.447Z,11.30
2022-09-28T02:38:24.383Z,11.30
2022-09-28T02:41:06.902Z,11.30
2022-09-28T02:43:45.204Z,11.30
2022-09-28T02:46:23.431Z,11.30
2022-09-28T02:49:21.531Z,11.30
2022-09-28T02:52:08.508Z,11.30
2022-09-28T02:54:56.547Z,11.30
2022-09-28T02:57:36.107Z,11.30
2022-09-28T03:00:10.263Z,11.20
2022-09-28T03:02:46.317Z,11.20
2022-09-28T03:05:19.268Z,11.20
2022-09-28T03:07:55.442Z,11.20
2022-09-28T03:10:29.440Z,11.20
2022-09-28T03:15:34.088Z,11.20
2022-09-28T03:18:01.871Z,11.10
2022-09-28T03:20:30.721Z,11.10
2022-09-28T03:26:19.593Z,11.10
2022-09-28T03:31:23.758Z,11.10
2022-09-28T03:33:52.877Z,11.10
2022-09-28T03:36:20.722Z,12.80
2022-09-28T03:38:48.514Z,11.10
2022-09-28T03:41:16.440Z,11.10
2022-09-28T03:43:44.283Z,11.10
2022-09-28T03:46:12.126Z,11.10
2022-09-28T03:48:41.566Z,11.10
2022-09-28T03:51:12.073Z,11.10
2022-09-28T03:53:40.325Z,11.00
2022-09-28T03:56:35.203Z,11.00
2022-09-28T03:59:04.280Z,11.00
2022-09-28T04:01:32.397Z,11.00
2022-09-28T04:04:00.503Z,10.90
2022-09-28T04:06:28.590Z,10.90
2022-09-28T04:08:56.386Z,10.90
2022-09-28T04:11:24.423Z,10.90
2022-09-28T04:13:53.531Z,10.90
2022-09-28T04:16:21.330Z,10.80
2022-09-28T04:18:49.381Z,10.80
2022-09-28T04:21:18.731Z,10.80
2022-09-28T04:23:47.185Z,10.80
2022-09-28T04:26:17.526Z,10.70
2022-09-28T04:29:06.502Z,10.80
2022-09-28T04:31:41.073Z,10.70
2022-09-28T04:34:09.345Z,13.00
2022-09-28T04:36:37.505Z,10.70
2022-09-28T04:39:06.049Z,10.60
2022-09-28T04:41:34.135Z,10.70
2022-09-28T04:46:36.007Z,10.50
2022-09-28T04:49:04.125Z,10.50
2022-09-28T04:51:32.546Z,10.50
2022-09-28T04:57:41.153Z,10.40
2022-09-28T05:00:10.579Z,10.40
2022-09-28T05:02:39.018Z,10.30
2022-09-28T05:05:07.802Z,10.30
2022-09-28T05:10:16.725Z,10.20
2022-09-28T05:12:44.603Z,10.20
2022-09-28T05:15:12.812Z,10.20
2022-09-28T05:17:40.660Z,10.20
2022-09-28T05:24:36.805Z,10.10
2022-09-28T05:27:05.080Z,10.20
2022-09-28T05:29:32.942Z,10.20
2022-09-28T05:32:02.198Z,10.10
2022-09-28T05:34:30.478Z,10.10
2022-09-28T05:36:58.561Z,10.10
2022-09-28T05:39:26.695Z,10.10
2022-09-28T05:41:57.785Z,10.10
2022-09-28T05:44:25.908Z,10.10
2022-09-28T05:46:54.666Z,10.10
2022-09-28T05:49:22.545Z,10.00
2022-09-28T05:51:50.515Z,10.00
2022-09-28T05:54:20.110Z,10.00
2022-09-28T05:59:30.310Z,10.00
2022-09-28T06:01:58.280Z,10.00
2022-09-28T06:04:26.352Z,10.00
2022-09-28T06:12:08.988Z,10.00
2022-09-28T06:14:37.123Z,10.00
2022-09-28T06:17:05.195Z,10.00
2022-09-28T06:19:33.393Z,10.00
2022-09-28T06:22:01.339Z,10.00
2022-09-28T06:25:51.447Z,10.10
2022-09-28T06:28:19.381Z,10.10
2022-09-28T06:30:48.211Z,10.10
2022-09-28T06:33:16.447Z,10.20
2022-09-28T06:35:44.459Z,10.20
2022-09-28T06:38:12.801Z,10.30
2022-09-28T06:40:40.831Z,10.30
2022-09-28T06:43:14.716Z,10.30
2022-09-28T06:45:43.777Z,10.40
2022-09-28T06:50:14.456Z,10.50
2022-09-28T06:52:42.464Z,10.50
2022-09-28T06:55:10.650Z,10.60
2022-09-28T06:57:38.652Z,10.60
2022-09-28T07:00:07.806Z,10.70
2022-09-28T07:04:50.381Z,10.70
2022-09-28T07:07:18.356Z,10.80
2022-09-28T07:09:50.343Z,10.90
2022-09-28T07:12:20.284Z,10.90
2022-09-28T07:14:50.164Z,11.00
2022-09-28T07:17:18.605Z,11.10
2022-09-28T07:22:40.529Z,11.20
2022-09-28T07:27:48.400Z,11.40
2022-09-28T07:30:16.954Z,11.40
2022-09-28T07:32:46.782Z,11.50
2022-09-28T07:38:01.504Z,11.70
2022-09-28T07:40:48.562Z,11.80
2022-09-28T07:43:24.777Z,11.90
2022-09-28T07:45:54.918Z,12.00
2022-09-28T07:48:23.418Z,14.00
2022-09-28T07:50:52.275Z,13.90
2022-09-28T07:53:20.762Z,12.20
2022-09-28T07:58:10.847Z,12.40
2022-09-28T08:04:06.489Z,12.60
2022-09-28T08:13:27.099Z,12.90
2022-09-28T08:16:34.277Z,13.00
2022-09-28T08:23:40.078Z,13.30
2022-09-28T08:33:21.140Z,13.60
2022-09-28T08:35:55.523Z,13.70
2022-09-28T08:41:01.188Z,13.80
2022-09-28T08:43:55.007Z,13.90
2022-09-28T08:46:27.158Z,14.00
2022-09-28T08:52:00.686Z,14.10
2022-09-28T08:54:44.027Z,14.20
2022-09-28T08:59:52.322Z,14.30
2022-09-28T09:02:25.357Z,14.40
2022-09-28T09:07:44.651Z,14.60
2022-09-28T09:10:30.111Z,14.70
2022-09-28T09:13:12.313Z,14.70
2022-09-28T09:15:48.744Z,14.80
2022-09-28T09:18:26.517Z,14.90
2022-09-28T09:20:58.303Z,15.00
2022-09-28T09:23:36.542Z,15.00
2022-09-28T09:26:15.115Z,15.10
2022-09-28T09:29:20.711Z,15.10
2022-09-28T09:32:05.187Z,15.30
2022-09-28T09:34:50.441Z,15.40
2022-09-28T09:37:41.889Z,15.40
2022-09-28T09:40:26.141Z,15.50
2022-09-28T09:43:07.375Z,15.60
2022-09-28T09:45:53.104Z,15.70
2022-09-28T09:48:32.148Z,15.80
2022-09-28T09:51:03.262Z,15.90
2022-09-28T09:53:38.507Z,15.90
2022-09-28T09:56:15.446Z,16.00
2022-09-28T09:58:49.232Z,16.00
2022-09-28T10:01:20.936Z,19.20
2022-09-28T10:03:51.967Z,16.10
2022-09-28T10:06:26.629Z,16.10
2022-09-28T10:09:02.912Z,16.10
2022-09-28T10:11:45.749Z,16.20
2022-09-28T10:14:21.448Z,16.30
2022-09-28T10:16:52.328Z,16.30
2022-09-28T10:19:22.871Z,16.40
2022-09-28T10:21:52.002Z,16.40
2022-09-28T10:24:30.579Z,16.50
2022-09-28T10:27:05.639Z,16.50
2022-09-28T10:29:44.365Z,16.60
2022-09-28T10:32:23.881Z,16.60
2022-09-28T10:37:20.943Z,16.70
2022-09-28T10:39:51.637Z,16.70
2022-09-28T10:42:23.668Z,15.20
2022-09-28T10:44:57.833Z,16.80
2022-09-28T10:47:28.825Z,16.80
2022-09-28T10:49:57.538Z,16.90
2022-09-28T10:52:34.119Z,16.90
2022-09-28T10:55:03.087Z,17.00
2022-09-28T10:57:36.111Z,17.00
2022-09-28T11:00:06.498Z,17.10
2022-09-28T11:02:37.524Z,17.10
2022-09-28T11:05:08.279Z,15.50
2022-09-28T11:07:48.005Z,17.10
2022-09-28T11:10:23.303Z,17.10
2022-09-28T11:12:54.409Z,17.20
2022-09-28T11:15:25.478Z,17.20
2022-09-28T11:20:31.637Z,17.30
2022-09-28T11:23:01.326Z,17.40
2022-09-28T11:25:31.294Z,17.40
2022-09-28T11:28:04.392Z,17.50
2022-09-28T11:30:38.389Z,17.60
2022-09-28T11:33:12.913Z,17.60
2022-09-28T11:35:48.041Z,17.70
2022-09-28T11:38:31.771Z,17.80
2022-09-28T11:41:12.204Z,17.90
2022-09-28T11:44:31.001Z,17.90
2022-09-28T11:47:27.758Z,18.00
2022-09-28T11:50:03.364Z,18.10
2022-09-28T11:52:36.334Z,18.20
2022-09-28T11:55:10.785Z,18.20
2022-09-28T11:57:41.894Z,18.30
2022-09-28T12:00:16.727Z,18.50
2022-09-28T12:02:50.181Z,18.50
2022-09-28T12:05:24.333Z,18.60
2022-09-28T12:07:55.874Z,18.60
2022-09-28T12:10:36.911Z,18.60
2022-09-28T12:13:10.736Z,18.60
2022-09-28T12:16:15.034Z,18.60
2022-09-28T12:18:43.223Z,18.50
2022-09-28T12:21:23.369Z,18.50
2022-09-28T12:26:29.409Z,18.50
2022-09-28T12:29:00.898Z,18.40
2022-09-28T12:31:36.070Z,18.30
2022-09-28T12:34:04.305Z,18.20
2022-09-28T12:36:47.415Z,18.10
2022-09-28T12:39:56.460Z,18.10
2022-09-28T12:42:45.358Z,18.00
2022-09-28T12:45:30.976Z,17.90
2022-09-28T12:48:31.374Z,17.90
2022-09-28T12:51:10.703Z,17.80
2022-09-28T12:54:00.134Z,17.70
2022-09-28T12:56:34.835Z,17.70
2022-09-28T12:59:16.352Z,17.70
2022-09-28T13:02:02.607Z,17.60
2022-09-28T13:04:47.680Z,17.50
2022-09-28T13:07:24.148Z,17.50
2022-09-28T13:10:02.398Z,17.40
2022-09-28T13:12:43.994Z,17.30
2022-09-28T13:15:35.435Z,17.30
2022-09-28T13:18:15.867Z,17.20
2022-09-28T13:20:58.294Z,17.20
2022-09-28T13:23:31.063Z,17.10
2022-09-28T13:26:09.881Z,17.10
2022-09-28T13:28:38.976Z,17.10
2022-09-28T13:31:08.926Z,17.00
2022-09-28T13:33:39.495Z,17.00
2022-09-28T13:36:39.526Z,17.00
2022-09-28T13:39:36.016Z,16.90
2022-09-28T13:44:54.268Z,16.90
2022-09-28T13:47:34.804Z,16.90
2022-09-28T13:50:18.804Z,16.90
2022-09-28T13:52:53.379Z,16.90
2022-09-28T13:55:32.946Z,16.90
2022-09-28T13:58:05.181Z,16.90
2022-09-28T14:00:39.184Z,16.90
2022-09-28T14:03:24.281Z,16.90
2022-09-28T14:06:22.002Z,16.90
2022-09-28T14:09:10.357Z,17.00
2022-09-28T14:11:44.407Z,16.90
2022-09-28T14:14:49.765Z,17.00
2022-09-28T14:17:55.547Z,17.00
2022-09-28T14:20:28.157Z,17.00
2022-09-28T14:23:29.326Z,16.90
2022-09-28T14:26:28.607Z,16.90
2022-09-28T14:29:10.557Z,16.90
2022-09-28T14:31:43.352Z,16.90
2022-09-28T14:34:27.848Z,16.90
2022-09-28T14:37:13.445Z,17.00
2022-09-28T14:40:03.702Z,16.90
2022-09-28T14:42:33.434Z,17.00
2022-09-28T14:45:36.257Z,17.00
2022-09-28T14:48:16.247Z,17.00
2022-09-28T14:53:23.823Z,17.00
2022-09-28T14:55:55.380Z,17.00
2022-09-28T14:58:27.537Z,17.00
2022-09-28T15:01:01.041Z,17.00
2022-09-28T15:03:32.687Z,17.00
2022-09-28T15:08:40.388Z,16.90
2022-09-28T15:11:14.876Z,16.90
2022-09-28T15:13:46.580Z,16.90
2022-09-28T15:16:16.497Z,16.80
2022-09-28T15:19:08.264Z,16.80
2022-09-28T15:21:37.989Z,16.80
2022-09-28T15:24:32.398Z,16.80
2022-09-28T15:29:33.312Z,16.80
2022-09-28T15:34:50.848Z,16.80
2022-09-28T15:37:24.014Z,16.80
2022-09-28T15:39:53.304Z,16.80
2022-09-28T15:42:22.782Z,16.70
2022-09-28T15:45:26.790Z,16.70
2022-09-28T15:48:27.135Z,16.80
2022-09-28T15:51:02.618Z,16.80
2022-09-28T15:56:09.650Z,16.80
2022-09-28T15:58:38.926Z,16.80
2022-09-28T16:01:36.970Z,16.80
2022-09-28T16:04:38.314Z,16.90
2022-09-28T16:07:20.497Z,16.90
2022-09-28T16:09:56.713Z,16.90
2022-09-28T16:12:30.120Z,16.90
2022-09-28T16:17:32.290Z,16.90
2022-09-28T16:25:02.014Z,16.80
2022-09-28T16:27:39.864Z,16.80
2022-09-28T16:30:24.428Z,16.70
2022-09-28T16:32:56.366Z,16.70
2022-09-28T16:35:32.660Z,16.70
2022-09-28T16:38:10.639Z,16.70
2022-09-28T16:40:41.827Z,16.70
2022-09-28T16:43:17.064Z,15.40
2022-09-28T16:48:20.314Z,16.50
2022-09-28T16:53:35.690Z,16.40
2022-09-28T16:56:04.936Z,16.40
2022-09-28T17:01:02.054Z,16.30
2022-09-28T17:03:31.540Z,16.20
2022-09-28T17:13:46.222Z,16.10
2022-09-28T17:16:17.711Z,16.00
2022-09-28T17:18:48.325Z,16.00
2022-09-28T17:21:19.880Z,16.00
2022-09-28T17:23:49.551Z,15.90
2022-09-28T17:26:21.734Z,15.90
2022-09-28T17:31:20.117Z,15.80
2022-09-28T17:33:49.349Z,15.80
2022-09-28T17:36:18.791Z,15.70
2022-09-28T17:38:48.243Z,15.70
2022-09-28T17:41:20.474Z,15.70
2022-09-28T17:46:28.286Z,15.60
2022-09-28T17:48:59.579Z,15.60
2022-09-28T17:51:28.822Z,14.40
2022-09-28T17:59:01.186Z,15.40
2022-09-28T18:04:05.644Z,15.30
2022-09-28T18:06:42.175Z,15.30
2022-09-28T18:09:13.293Z,15.20
2022-09-28T18:11:44.350Z,15.10
2022-09-28T18:19:10.309Z,15.00
2022-09-28T18:24:06.848Z,14.90
2022-09-28T18:36:31.069Z,14.80
2022-09-28T18:39:01.448Z,14.70
2022-09-28T18:46:29.296Z,14.60
2022-09-28T18:53:55.818Z,14.60
2022-09-28T18:58:52.666Z,14.50
2022-09-28T19:01:30.736Z,14.50
2022-09-28T19:04:00.486Z,14.50
2022-09-28T19:06:29.091Z,14.50
2022-09-28T19:08:59.149Z,14.40
2022-09-28T19:11:28.475Z,14.40
2022-09-28T19:16:26.723Z,14.40
2022-09-28T19:26:25.395Z,14.30
2022-09-28T19:36:21.135Z,14.20
2022-09-28T19:41:43.136Z,14.10
2022-09-28T19:44:21.054Z,14.00
2022-09-28T19:49:21.128Z,14.00
2022-09-28T19:52:15.640Z,13.90
2022-09-28T19:59:38.192Z,13.80
2022-09-28T20:02:07.814Z,13.80
2022-09-28T20:09:32.835Z,13.70
2022-09-28T20:17:05.684Z,13.70
2022-09-28T20:34:29.672Z,13.50
2022-09-28T20:51:49.948Z,13.30
2022-09-28T20:59:16.160Z,13.20
2022-09-28T21:06:43.163Z,13.10
2022-09-28T21:09:13.270Z,13.10
2022-09-28T21:14:10.749Z,13.10
2022-09-28T21:26:35.143Z,12.90
2022-09-28T21:29:04.732Z,13.90
2022-09-28T21:31:38.948Z,12.90
2022-09-28T21:41:39.404Z,12.80
2022-09-28T21:49:06.477Z,12.70
2022-09-28T21:51:35.422Z,12.60
2022-09-28T21:59:02.203Z,12.60
2022-09-28T22:06:28.988Z,12.50
2022-09-28T22:11:26.853Z,12.50
2022-09-28T22:13:56.507Z,12.40
2022-09-28T22:16:27.506Z,12.40
2022-09-28T22:21:25.883Z,12.30
2022-09-28T22:23:54.083Z,12.30
2022-09-28T22:26:23.757Z,12.30
2022-09-28T22:28:53.620Z,12.30
2022-09-28T22:31:23.299Z,12.20
2022-09-28T22:33:52.674Z,12.20
2022-09-28T22:38:49.250Z,12.20
2022-09-28T22:41:20.991Z,12.10
2022-09-28T22:43:49.775Z,12.10
2022-09-28T22:46:19.052Z,12.00
2022-09-28T22:48:48.026Z,12.00
2022-09-28T22:51:17.813Z,12.00
2022-09-28T23:01:17.795Z,11.90
2022-09-28T23:06:17.711Z,11.80
2022-09-28T23:08:47.177Z,11.80
2022-09-28T23:16:14.685Z,11.70
2022-09-28T23:18:43.634Z,11.70
2022-09-28T23:21:15.255Z,11.60
2022-09-28T23:23:44.576Z,11.60
2022-09-28T23:26:13.981Z,11.60
2022-09-28T23:31:12.346Z,11.50
2022-09-28T23:36:09.542Z,11.50
2022-09-28T23:41:07.520Z,11.40
2022-09-28T23:48:33.040Z,11.30
2022-09-28T23:58:28.233Z,11.20
